createdAt,value
2018-09-02T00:01:15.051Z,2.93
2018-09-02T00:03:43.226Z,2.77
2018-09-02T00:06:13.697Z,2.70
2018-09-02T00:08:45.037Z,2.70
2018-09-02T00:11:18.607Z,3.33
2018-09-02T00:13:47.607Z,2.93
2018-09-02T00:16:20.216Z,2.90
2018-09-02T00:18:49.879Z,2.87
2018-09-02T00:21:20.463Z,2.80
2018-09-02T00:23:50.712Z,2.70
2018-09-02T00:26:21.301Z,2.87
2018-09-02T00:28:52.221Z,2.90
2018-09-02T00:31:22.428Z,2.97
2018-09-02T00:33:53.993Z,2.97
2018-09-02T00:36:24.148Z,3.00
2018-09-02T00:38:58.163Z,3.10
2018-09-02T00:41:27.103Z,3.03
2018-09-02T00:43:56.638Z,3.00
2018-09-02T00:46:35.206Z,3.47
2018-09-02T00:49:06.124Z,3.03
2018-09-02T00:51:34.840Z,2.90
2018-09-02T00:54:22.033Z,2.93
2018-09-02T00:56:51.699Z,3.10
2018-09-02T00:59:22.999Z,3.03
2018-09-02T01:01:53.630Z,3.20
2018-09-02T01:04:26.848Z,3.20
2018-09-02T01:06:54.980Z,3.53
2018-09-02T01:09:24.280Z,3.07
2018-09-02T01:11:58.326Z,2.80
2018-09-02T01:14:26.601Z,3.10
2018-09-02T01:16:55.288Z,2.77
2018-09-02T01:19:23.746Z,3.20
2018-09-02T01:21:53.739Z,3.23
2018-09-02T01:24:22.783Z,2.97
2018-09-02T01:26:53.135Z,2.80
2018-09-02T01:29:23.746Z,3.17
2018-09-02T01:31:52.600Z,3.03
2018-09-02T01:34:23.047Z,2.70
2018-09-02T01:36:52.993Z,3.30
2018-09-02T01:39:21.869Z,3.40
2018-09-02T01:41:53.437Z,3.13
2018-09-02T01:44:22.502Z,3.07
2018-09-02T01:46:52.403Z,2.90
2018-09-02T01:49:21.755Z,3.13
2018-09-02T01:52:05.152Z,3.00
2018-09-02T01:54:34.358Z,3.13
2018-09-02T01:57:03.566Z,3.30
2018-09-02T01:59:32.639Z,3.47
2018-09-02T02:02:02.098Z,3.30
2018-09-02T02:04:36.796Z,3.13
2018-09-02T02:07:10.318Z,3.27
2018-09-02T02:09:38.682Z,3.10
2018-09-02T02:12:07.027Z,3.53
2018-09-02T02:14:38.961Z,3.17
2018-09-02T02:17:07.970Z,3.13
2018-09-02T02:19:37.607Z,3.20
2018-09-02T02:22:06.013Z,3.33
2018-09-02T02:24:34.245Z,2.90
2018-09-02T02:27:36.340Z,3.40
2018-09-02T02:30:24.223Z,3.40
2018-09-02T02:32:52.613Z,3.13
2018-09-02T02:35:22.761Z,3.13
2018-09-02T02:37:52.006Z,3.23
2018-09-02T02:40:20.961Z,3.20
2018-09-02T02:42:50.411Z,3.40
2018-09-02T02:45:21.314Z,2.80
2018-09-02T02:47:51.888Z,3.20
2018-09-02T02:50:20.792Z,3.37
2018-09-02T02:52:56.217Z,3.37
2018-09-02T02:55:26.592Z,3.20
2018-09-02T02:57:55.236Z,3.13
2018-09-02T03:00:23.966Z,3.23
2018-09-02T03:03:02.416Z,3.30
2018-09-02T03:05:40.657Z,3.60
2018-09-02T03:08:12.158Z,3.30
2018-09-02T03:10:42.472Z,3.00
2018-09-02T03:13:11.379Z,3.30
2018-09-02T03:15:48.528Z,3.30
2018-09-02T03:18:17.680Z,2.90
2018-09-02T03:20:46.433Z,3.57
2018-09-02T03:23:16.206Z,3.03
2018-09-02T03:25:45.164Z,3.10
2018-09-02T03:28:15.673Z,3.27
2018-09-02T03:30:45.671Z,3.00
2018-09-02T03:33:14.333Z,3.63
2018-09-02T03:35:50.902Z,3.40
2018-09-02T03:38:19.782Z,3.53
2018-09-02T03:40:49.930Z,3.57
2018-09-02T03:43:37.072Z,3.50
2018-09-02T03:50:26.998Z,3.70
2018-09-02T03:52:59.602Z,3.70
2018-09-02T03:55:34.704Z,3.37
2018-09-02T03:58:06.563Z,4.23
2018-09-02T04:00:42.079Z,3.43
2018-09-02T04:03:15.766Z,3.60
2018-09-02T04:05:45.143Z,3.53
2018-09-02T04:08:14.267Z,3.73
2018-09-02T04:10:42.723Z,3.43
2018-09-02T04:13:11.785Z,3.20
2018-09-02T04:15:46.959Z,3.30
2018-09-02T04:18:15.947Z,3.30
2018-09-02T04:20:45.235Z,3.50
2018-09-02T04:23:14.029Z,3.80
2018-09-02T04:25:44.176Z,3.50
2018-09-02T04:28:13.958Z,3.50
2018-09-02T04:30:43.576Z,3.40
2018-09-02T04:33:13.734Z,3.10
2018-09-02T04:35:44.822Z,3.67
2018-09-02T04:38:15.426Z,3.90
2018-09-02T04:40:44.633Z,3.33
2018-09-02T04:43:12.843Z,3.57
2018-09-02T04:45:44.070Z,3.60
2018-09-02T04:48:12.337Z,3.40
2018-09-02T04:50:40.500Z,3.43
2018-09-02T04:53:12.162Z,3.67
2018-09-02T04:55:41.154Z,3.87
2018-09-02T04:58:12.961Z,3.60
2018-09-02T05:00:41.098Z,3.67
2018-09-02T05:03:10.577Z,3.40
2018-09-02T05:05:40.688Z,3.43
2018-09-02T05:08:08.976Z,3.40
2018-09-02T05:10:39.713Z,3.47
2018-09-02T05:13:09.020Z,3.40
2018-09-02T05:15:37.891Z,3.47
2018-09-02T05:18:06.994Z,3.50
2018-09-02T05:20:35.262Z,3.37
2018-09-02T05:23:05.510Z,3.70
2018-09-02T05:25:34.988Z,4.00
2018-09-02T05:28:04.187Z,3.63
2018-09-02T05:30:33.546Z,3.47
2018-09-02T05:33:03.704Z,3.47
2018-09-02T05:35:44.320Z,3.50
2018-09-02T05:38:17.821Z,3.77
2018-09-02T05:40:49.714Z,3.20
2018-09-02T05:43:22.561Z,3.53
2018-09-02T05:46:25.022Z,3.70
2018-09-02T05:48:54.611Z,3.70
2018-09-02T05:51:23.315Z,3.70
2018-09-02T05:53:51.770Z,3.80
2018-09-02T05:56:20.278Z,4.07
2018-09-02T05:58:49.219Z,4.03
2018-09-02T06:01:17.766Z,4.07
2018-09-02T06:03:46.706Z,4.27
2018-09-02T06:06:16.692Z,4.03
2018-09-02T06:08:44.698Z,4.17
2018-09-02T06:11:16.200Z,4.37
2018-09-02T06:13:46.574Z,4.23
2018-09-02T06:16:15.020Z,3.73
2018-09-02T06:18:46.621Z,3.80
2018-09-02T06:21:16.103Z,4.00
2018-09-02T06:23:44.658Z,3.70
2018-09-02T06:26:14.504Z,3.70
2018-09-02T06:28:44.096Z,3.73
2018-09-02T06:31:14.207Z,3.60
2018-09-02T06:33:46.593Z,3.80
2018-09-02T06:36:15.752Z,3.70
2018-09-02T06:38:44.837Z,4.03
2018-09-02T06:41:13.659Z,3.67
2018-09-02T06:43:48.571Z,3.90
2018-09-02T06:46:21.895Z,3.80
2018-09-02T06:48:55.218Z,6.40
2018-09-02T06:51:26.014Z,3.67
2018-09-02T06:53:55.330Z,4.07
2018-09-02T06:56:24.323Z,3.80
2018-09-02T06:58:56.015Z,3.67
2018-09-02T07:01:25.008Z,3.93
2018-09-02T07:03:54.251Z,4.83
2018-09-02T07:06:23.154Z,4.03
2018-09-02T07:08:51.198Z,3.53
2018-09-02T07:11:48.015Z,4.00
2018-09-02T07:14:34.334Z,3.63
2018-09-02T07:17:04.142Z,4.00
2018-09-02T07:19:37.402Z,3.77
2018-09-02T07:22:06.463Z,3.60
2018-09-02T07:24:35.937Z,3.90
2018-09-02T07:27:05.305Z,4.07
2018-09-02T07:29:34.080Z,3.73
2018-09-02T07:32:02.260Z,3.73
2018-09-02T07:34:30.744Z,4.33
2018-09-02T07:37:02.476Z,3.70
2018-09-02T07:39:34.511Z,3.80
2018-09-02T07:42:04.261Z,3.63
2018-09-02T07:44:34.387Z,3.37
2018-09-02T07:47:12.427Z,3.70
2018-09-02T07:49:42.952Z,3.70
2018-09-02T07:52:12.265Z,3.87
2018-09-02T07:54:48.194Z,4.07
2018-09-02T07:57:17.011Z,3.93
2018-09-02T07:59:47.891Z,3.93
2018-09-02T08:02:16.171Z,3.60
2018-09-02T08:04:46.272Z,3.70
2018-09-02T08:07:19.141Z,3.57
2018-09-02T08:09:49.803Z,3.70
2018-09-02T08:12:22.551Z,3.80
2018-09-02T08:14:50.728Z,3.13
2018-09-02T08:17:18.810Z,3.57
2018-09-02T08:19:51.959Z,3.53
2018-09-02T08:22:28.277Z,3.37
2018-09-02T08:24:57.897Z,3.53
2018-09-02T08:27:27.457Z,3.13
2018-09-02T08:29:55.509Z,3.67
2018-09-02T08:32:24.647Z,3.40
2018-09-02T08:34:54.021Z,3.53
2018-09-02T08:37:22.148Z,3.70
2018-09-02T08:39:54.173Z,3.27
2018-09-02T08:42:35.527Z,3.67
2018-09-02T08:45:07.628Z,3.87
2018-09-02T08:47:35.633Z,3.33
2018-09-02T08:50:06.581Z,3.57
2018-09-02T08:52:35.587Z,3.40
2018-09-02T08:55:03.798Z,3.37
2018-09-02T08:57:33.520Z,3.67
2018-09-02T09:00:01.917Z,3.50
2018-09-02T09:02:30.423Z,3.63
2018-09-02T09:05:29.255Z,3.70
2018-09-02T09:08:22.299Z,3.47
2018-09-02T09:11:03.009Z,4.00
2018-09-02T09:13:32.455Z,4.00
2018-09-02T09:16:01.208Z,3.73
2018-09-02T09:18:32.119Z,3.53
2018-09-02T09:21:01.868Z,3.93
2018-09-02T09:23:32.411Z,4.07
2018-09-02T09:26:04.106Z,3.67
2018-09-02T09:28:43.154Z,4.17
2018-09-02T09:31:14.624Z,3.60
2018-09-02T09:33:44.353Z,3.73
2018-09-02T09:36:12.584Z,4.10
2018-09-02T09:38:40.581Z,4.10
2018-09-02T09:41:09.346Z,3.70
2018-09-02T09:43:38.414Z,3.97
2018-09-02T09:46:08.667Z,6.17
2018-09-02T09:48:40.149Z,4.23
2018-09-02T09:51:09.851Z,4.03
2018-09-02T09:53:39.709Z,3.70
2018-09-02T09:56:08.372Z,4.90
2018-09-02T09:58:42.109Z,4.70
2018-09-02T10:01:23.975Z,4.47
2018-09-02T10:04:11.745Z,4.03
2018-09-02T10:07:05.250Z,4.67
2018-09-02T10:09:36.695Z,4.40
2018-09-02T10:12:05.730Z,4.90
2018-09-02T10:14:34.327Z,4.00
2018-09-02T10:17:04.216Z,4.53
2018-09-02T10:19:33.521Z,4.27
2018-09-02T10:22:02.525Z,4.27
2018-09-02T10:25:11.779Z,3.93
2018-09-02T10:27:41.388Z,3.27
2018-09-02T10:30:11.463Z,4.30
2018-09-02T10:32:45.220Z,4.20
2018-09-02T10:35:16.759Z,3.63
2018-09-02T10:37:46.294Z,4.17
2018-09-02T10:40:39.703Z,3.50
2018-09-02T10:43:11.134Z,3.20
2018-09-02T10:45:41.214Z,3.93
2018-09-02T10:48:10.715Z,3.40
2018-09-02T10:50:45.694Z,3.17
2018-09-02T10:53:13.650Z,3.90
2018-09-02T10:55:47.640Z,3.57
2018-09-02T10:58:39.640Z,3.83
2018-09-02T11:01:09.711Z,3.90
2018-09-02T11:03:39.953Z,3.43
2018-09-02T11:06:08.614Z,3.60
2018-09-02T11:08:39.614Z,4.20
2018-09-02T11:11:25.355Z,4.10
2018-09-02T11:13:57.939Z,3.83
2018-09-02T11:16:26.226Z,4.10
2018-09-02T11:18:57.079Z,3.83
2018-09-02T11:21:25.809Z,3.67
2018-09-02T11:24:09.585Z,3.60
2018-09-02T11:26:42.625Z,4.20
2018-09-02T11:29:25.225Z,3.53
2018-09-02T11:32:06.893Z,3.13
2018-09-02T11:34:35.259Z,3.70
2018-09-02T11:37:17.160Z,3.50
2018-09-02T11:43:07.312Z,3.30
2018-09-02T11:45:36.913Z,3.30
2018-09-02T11:48:14.633Z,2.73
2018-09-02T11:50:53.217Z,2.93
2018-09-02T11:53:33.299Z,2.73
2018-09-02T11:56:08.148Z,2.97
2018-09-02T11:58:41.183Z,2.97
2018-09-02T12:01:10.184Z,2.80
2018-09-02T12:03:40.487Z,3.20
2018-09-02T12:06:37.490Z,2.73
2018-09-02T12:09:10.680Z,3.07
2018-09-02T12:11:39.183Z,2.77
2018-09-02T12:14:43.836Z,2.90
2018-09-02T12:17:35.097Z,2.93
2018-09-02T12:20:05.925Z,2.33
2018-09-02T12:26:03.590Z,2.70
2018-09-02T12:28:32.411Z,3.50
2018-09-02T12:31:21.412Z,4.80
2018-09-02T12:33:53.130Z,3.40
2018-09-02T12:36:23.307Z,3.50
2018-09-02T12:38:55.452Z,3.93
2018-09-02T12:41:28.739Z,3.60
2018-09-02T12:44:01.162Z,3.00
2018-09-02T12:46:33.181Z,3.07
2018-09-02T12:49:01.650Z,3.10
2018-09-02T12:51:30.261Z,3.13
2018-09-02T12:54:22.091Z,3.23
2018-09-02T12:57:15.256Z,3.13
2018-09-02T12:59:45.545Z,3.70
2018-09-02T13:02:15.091Z,3.03
2018-09-02T13:04:45.283Z,3.47
2018-09-02T13:07:16.474Z,3.00
2018-09-02T13:09:45.756Z,3.50
2018-09-02T13:12:16.089Z,3.60
2018-09-02T13:14:56.218Z,3.40
2018-09-02T13:17:28.413Z,3.30
2018-09-02T13:19:58.941Z,4.10
2018-09-02T13:22:27.010Z,3.50
2018-09-02T13:24:58.871Z,3.20
2018-09-02T13:27:27.084Z,3.50
2018-09-02T13:29:55.406Z,3.13
2018-09-02T13:32:26.591Z,3.37
2018-09-02T13:35:07.884Z,3.00
2018-09-02T13:37:37.448Z,2.90
2018-09-02T13:40:06.488Z,2.77
2018-09-02T13:42:37.088Z,2.67
2018-09-02T13:45:06.475Z,3.00
2018-09-02T13:47:37.090Z,2.87
2018-09-02T13:50:11.156Z,2.83
2018-09-02T13:52:42.581Z,2.73
2018-09-02T13:56:41.970Z,2.90
2018-09-02T13:59:35.681Z,3.40
2018-09-02T14:02:13.143Z,3.10
2018-09-02T14:04:42.619Z,3.17
2018-09-02T14:07:28.603Z,3.10
2018-09-02T14:09:58.830Z,2.50
2018-09-02T14:12:27.315Z,2.80
2018-09-02T14:14:58.683Z,3.23
2018-09-02T14:17:27.246Z,2.87
2018-09-02T14:19:57.099Z,2.80
2018-09-02T14:22:33.261Z,2.40
2018-09-02T14:25:05.235Z,2.40
2018-09-02T14:27:34.860Z,2.30
2018-09-02T14:30:06.334Z,3.00
2018-09-02T14:32:47.763Z,2.70
2018-09-02T14:35:24.507Z,2.20
2018-09-02T14:37:53.618Z,2.00
2018-09-02T14:40:23.711Z,1.90
2018-09-02T14:42:54.879Z,2.50
2018-09-02T14:45:22.932Z,2.43
2018-09-02T14:48:16.872Z,2.33
2018-09-02T14:51:04.941Z,2.30
2018-09-02T14:53:49.320Z,2.63
2018-09-02T14:56:26.000Z,2.60
2018-09-02T14:58:57.046Z,2.40
2018-09-02T15:01:26.885Z,2.97
2018-09-02T15:03:57.413Z,3.10
2018-09-02T15:06:25.509Z,2.30
2018-09-02T15:09:06.706Z,3.00
2018-09-02T15:11:40.880Z,3.30
2018-09-02T15:14:18.372Z,2.53
2018-09-02T15:17:16.303Z,2.77
2018-09-02T15:19:45.357Z,2.80
2018-09-02T15:22:22.371Z,2.80
2018-09-02T15:24:54.450Z,3.70
2018-09-02T15:27:23.574Z,2.80
2018-09-02T15:29:56.479Z,2.27
2018-09-02T15:32:27.308Z,2.70
2018-09-02T15:35:03.495Z,2.60
2018-09-02T15:37:41.721Z,2.37
2018-09-02T15:40:17.811Z,2.87
2018-09-02T15:42:49.442Z,2.50
2018-09-02T15:45:21.532Z,2.50
2018-09-02T15:48:03.826Z,2.40
2018-09-02T15:50:32.976Z,2.93
2018-09-02T15:53:11.578Z,3.17
2018-09-02T15:59:04.460Z,2.50
2018-09-02T16:05:18.406Z,2.80
2018-09-02T16:07:53.465Z,3.83
2018-09-02T16:10:25.844Z,3.07
2018-09-02T16:12:57.844Z,3.33
2018-09-02T16:15:47.187Z,3.47
2018-09-02T16:18:16.921Z,2.80
2018-09-02T16:20:49.847Z,3.07
2018-09-02T16:23:20.070Z,3.10
2018-09-02T16:25:50.798Z,2.93
2018-09-02T16:28:36.241Z,2.90
2018-09-02T16:31:06.734Z,2.90
2018-09-02T16:33:47.793Z,2.63
2018-09-02T16:36:16.074Z,2.60
2018-09-02T16:38:54.799Z,2.50
2018-09-02T16:41:25.059Z,2.37
2018-09-02T16:43:53.390Z,3.20
2018-09-02T16:46:23.431Z,3.63
2018-09-02T16:48:55.685Z,2.80
2018-09-02T16:51:32.403Z,3.27
2018-09-02T16:54:01.405Z,2.80
2018-09-02T16:56:32.804Z,2.63
2018-09-02T16:59:06.937Z,2.60
2018-09-02T17:01:35.379Z,2.77
2018-09-02T17:10:28.745Z,2.40
2018-09-02T17:13:05.378Z,2.70
2018-09-02T17:15:42.429Z,2.70
2018-09-02T17:18:13.655Z,2.63
2018-09-02T17:20:57.418Z,2.70
2018-09-02T17:23:28.835Z,2.93
2018-09-02T17:26:04.664Z,3.17
2018-09-02T17:28:35.893Z,3.30
2018-09-02T17:31:08.396Z,2.50
2018-09-02T17:33:38.552Z,2.73
2018-09-02T17:36:08.498Z,2.57
2018-09-02T17:38:41.382Z,2.60
2018-09-02T17:41:11.144Z,2.80
2018-09-02T17:43:52.748Z,2.23
2018-09-02T17:46:25.983Z,2.40
2018-09-02T17:49:09.991Z,2.27
2018-09-02T17:51:46.486Z,2.50
2018-09-02T17:54:17.569Z,2.53
2018-09-02T17:56:50.109Z,2.80
2018-09-02T17:59:21.799Z,3.40
2018-09-02T18:01:51.430Z,3.00
2018-09-02T18:04:22.886Z,3.10
2018-09-02T18:06:53.342Z,2.93
2018-09-02T18:09:23.609Z,2.50
2018-09-02T18:12:00.973Z,2.93
2018-09-02T18:14:40.366Z,3.03
2018-09-02T18:17:13.793Z,2.50
2018-09-02T18:19:54.530Z,2.70
2018-09-02T18:23:02.379Z,3.17
2018-09-02T18:25:54.516Z,2.80
2018-09-02T18:28:28.470Z,2.97
2018-09-02T18:30:58.943Z,2.60
2018-09-02T18:33:28.433Z,2.73
2018-09-02T18:36:03.025Z,3.50
2018-09-02T18:38:33.407Z,3.30
2018-09-02T18:41:06.472Z,3.43
2018-09-02T18:43:39.306Z,3.00
2018-09-02T18:46:14.190Z,2.90
2018-09-02T18:48:47.262Z,4.33
2018-09-02T18:51:22.688Z,3.40
2018-09-02T18:53:53.880Z,3.70
2018-09-02T18:56:36.390Z,3.27
2018-09-02T18:59:35.535Z,3.73
2018-09-02T19:02:04.688Z,3.40
2018-09-02T19:04:40.065Z,3.60
2018-09-02T19:07:12.334Z,3.03
2018-09-02T19:09:53.753Z,3.50
2018-09-02T19:12:25.888Z,3.57
2018-09-02T19:14:59.213Z,3.13
2018-09-02T19:17:29.445Z,3.10
2018-09-02T19:19:59.065Z,3.43
2018-09-02T19:22:30.778Z,3.23
2018-09-02T19:25:09.791Z,3.50
2018-09-02T19:28:12.709Z,3.50
2018-09-02T19:30:44.039Z,3.90
2018-09-02T19:33:16.474Z,3.30
2018-09-02T19:35:47.857Z,3.77
2018-09-02T19:38:16.811Z,3.77
2018-09-02T19:40:53.233Z,3.70
2018-09-02T19:43:22.771Z,3.70
2018-09-02T19:45:53.109Z,3.83
2018-09-02T19:48:22.630Z,3.83
2018-09-02T19:56:16.596Z,3.50
2018-09-02T19:58:45.859Z,3.70
2018-09-02T20:01:18.164Z,3.67
2018-09-02T20:03:51.520Z,3.70
2018-09-02T20:06:29.775Z,3.47
2018-09-02T20:09:28.715Z,3.80
2018-09-02T20:12:02.533Z,4.20
2018-09-02T20:14:38.407Z,3.73
2018-09-02T20:17:08.448Z,3.40
2018-09-02T20:19:43.391Z,4.17
2018-09-02T20:22:14.954Z,4.20
2018-09-02T20:24:43.673Z,3.77
2018-09-02T20:27:28.755Z,3.87
2018-09-02T20:29:58.855Z,3.90
2018-09-02T20:32:30.905Z,4.77
2018-09-02T20:35:00.173Z,4.33
2018-09-02T20:37:41.383Z,4.30
2018-09-02T20:40:21.416Z,4.40
2018-09-02T20:42:52.619Z,4.40
2018-09-02T20:45:26.172Z,4.80
2018-09-02T20:48:10.100Z,4.70
2018-09-02T20:50:46.502Z,4.30
2018-09-02T20:53:18.826Z,4.67
2018-09-02T20:55:51.519Z,4.73
2018-09-02T20:58:28.676Z,4.57
2018-09-02T21:01:35.067Z,4.83
2018-09-02T21:04:04.646Z,4.50
2018-09-02T21:06:52.283Z,4.93
2018-09-02T21:09:36.729Z,5.10
2018-09-02T21:12:06.235Z,4.93
2018-09-02T21:14:47.716Z,4.70
2018-09-02T21:17:21.714Z,5.03
2018-09-02T21:23:47.275Z,5.10
2018-09-02T21:26:29.488Z,5.90
2018-09-02T21:29:06.102Z,5.73
2018-09-02T21:31:44.584Z,5.43
2018-09-02T21:34:14.875Z,5.53
2018-09-02T21:40:17.905Z,4.87
2018-09-02T21:43:08.451Z,5.40
2018-09-02T21:45:37.537Z,5.60
2018-09-02T21:48:07.820Z,4.67
2018-09-02T21:50:36.714Z,5.50
2018-09-02T21:53:06.134Z,5.00
2018-09-02T21:55:39.001Z,5.57
2018-09-02T21:58:08.813Z,5.57
2018-09-02T22:00:41.290Z,4.93
2018-09-02T22:03:13.577Z,5.30
2018-09-02T22:05:41.791Z,5.57
2018-09-02T22:08:11.790Z,5.33
2018-09-02T22:10:40.899Z,5.60
2018-09-02T22:13:10.668Z,5.53
2018-09-02T22:15:40.750Z,6.13
2018-09-02T22:18:10.379Z,5.97
2018-09-02T22:20:39.800Z,6.20
2018-09-02T22:24:25.805Z,6.33
2018-09-02T22:26:56.559Z,6.23
2018-09-02T22:29:25.640Z,6.80
2018-09-02T22:31:55.841Z,6.30
2018-09-02T22:34:25.832Z,6.10
2018-09-02T22:36:53.850Z,6.23
2018-09-02T22:39:29.421Z,6.37
2018-09-02T22:42:00.733Z,6.13
2018-09-02T22:44:29.930Z,7.13
2018-09-02T22:49:40.463Z,7.77
2018-09-02T22:52:11.579Z,7.37
2018-09-02T22:54:41.917Z,7.90
2018-09-02T22:57:10.239Z,7.83
2018-09-02T22:59:39.784Z,8.90
2018-09-02T23:02:09.535Z,7.80
2018-09-02T23:04:38.370Z,7.80
2018-09-02T23:07:09.506Z,7.90
2018-09-02T23:09:47.065Z,8.20
2018-09-02T23:12:17.816Z,8.23
2018-09-02T23:14:54.032Z,7.77
2018-09-02T23:17:23.520Z,8.33
2018-09-02T23:19:53.202Z,8.13
2018-09-02T23:22:23.712Z,8.10
2018-09-02T23:24:52.643Z,8.73
2018-09-02T23:27:21.919Z,8.70
2018-09-02T23:29:50.861Z,8.20
2018-09-02T23:32:19.513Z,8.33
2018-09-02T23:35:01.337Z,8.40
2018-09-02T23:37:32.507Z,8.57
2018-09-02T23:40:01.381Z,8.10
2018-09-02T23:42:29.577Z,8.13
2018-09-02T23:44:59.952Z,8.63
2018-09-02T23:47:30.280Z,8.50
2018-09-02T23:49:59.309Z,9.40
2018-09-02T23:52:29.615Z,8.60
2018-09-02T23:54:58.701Z,8.83
2018-09-02T23:57:30.317Z,9.07
2018-09-02T23:59:58.992Z,8.77
